Flight Track Log - Related Links

Times and Time Zones

All times are in EDT time to prevent confusion due to time zone crossing. See the UAL3767 flight status page for this flight to view local times or setup timezone preferences in your user account.

Time Position Orientation Groundspeed Altitude Reporting Facility
EDT Latitude Longitude Course Direction KTS MPH feet Rate Location/Type
Fri 11:41:04 AM 42.0167 -87.8833 90° East 153 176 2,200  Level Chicago TRACON
Fri 11:42:04 AM 42.0167 -87.8167 90° East 213 245 3,900 1,400 Climbing Chicago TRACON
Fri 11:43:04 AM 41.9500 -87.8167 180° South 242 278 5,000 1,326 Climbing Chicago TRACON
Fri 11:45:14 AM 41.8267 -87.8842 202° Southwest 253 291 8,100 2,010 Climbing Chicago Center
Fri 11:46:15 AM 41.7406 -87.8811 178° South 259 298 11,400 2,732 Climbing Chicago Center
Fri 11:47:17 AM 41.6664 -87.8811 180° South 265 305 13,700 1,645 Climbing Chicago Center
Fri 11:48:19 AM 41.5819 -87.8806 180° South 298 343 14,800 1,122 Climbing Chicago Center
Fri 11:49:20 AM 41.4842 -87.8789 179° South 343 395 16,000 1,317 Climbing Chicago Center
Fri 11:50:22 AM 41.3803 -87.8808 181° South 363 418 17,500 1,500 Climbing Chicago Center
Fri 11:51:24 AM 41.2731 -87.8908 184° South 376 433 19,100 1,659 Climbing Chicago Center
Fri 11:52:25 AM 41.1678 -87.8906 180° South 378 435 20,900 1,561 Climbing Chicago Center
Fri 11:53:27 AM 41.0617 -87.8875 179° South 379 436 22,300 1,161 Climbing Chicago Center
Fri 11:54:29 AM 40.9519 -87.8833 178° South 389 448 23,300 976 Climbing Chicago Center
Fri 11:55:30 AM 40.8392 -87.8800 179° South 403 464 24,300 1,171 Climbing Chicago Center
Fri 11:56:32 AM 40.7019 -87.8753 179° South 409 471 25,700 1,220 Climbing Chicago Center
Fri 11:57:33 AM 40.5853 -87.8725 179° South 418 481 26,800 1,024 Climbing Chicago Center
Fri 11:58:35 AM 40.4697 -87.8692 179° South 418 481 27,800 968 Climbing Chicago Center
Fri 11:59:37 AM 40.3519 -87.8644 178° South 423 487 28,800 968 Climbing Chicago Center
Fri 12:00:39 PM 40.2281 -87.8619 179° South 422 486 29,800 1,065 Climbing Indianapolis Center
Fri 12:01:41 PM 40.1125 -87.8569 178° South 419 482 31,000 1,113 Climbing Indianapolis Center
Fri 12:02:43 PM 39.9986 -87.8511 178° South 414 476 32,100 968 Climbing Indianapolis Center
Fri 12:03:45 PM 39.8644 -87.8444 178° South 407 468 33,000 774 Climbing Indianapolis Center
Fri 12:04:47 PM 39.7522 -87.8400 178° South 406 467 33,700 823 Climbing Indianapolis Center
Fri 12:05:49 PM 39.6394 -87.8347 178° South 407 468 34,700 629 Climbing Indianapolis Center
Fri 12:06:51 PM 39.5283 -87.8303 178° South 404 465 35,000 145 Climbing Indianapolis Center
Fri 12:07:53 PM 39.4147 -87.8258 178° South 410 472 35,000  Level Indianapolis Center
Fri 12:08:55 PM 39.2933 -87.8200 178° South 423 487 35,000  Level Indianapolis Center
Fri 12:09:57 PM 39.1508 -87.8147 178° South 425 489 35,000  Level Indianapolis Center
Fri 12:10:59 PM 39.0311 -87.8089 178° South 428 493 35,000  Level Indianapolis Center
Fri 12:12:01 PM 38.9128 -87.8031 178° South 426 490 35,000  Level Indianapolis Center
Fri 12:13:03 PM 38.7942 -87.7981 178° South 426 490 35,000  Level Indianapolis Center
Fri 12:14:05 PM 38.6744 -87.7944 179° South 429 494 35,000  Level Indianapolis Center
Fri 12:15:07 PM 38.5561 -87.7894 178° South 427 491 35,000  Level Indianapolis Center
Fri 12:16:09 PM 38.4375 -87.7839 178° South 428 493 35,000  Level Indianapolis Center
Fri 12:17:11 PM 38.2958 -87.7789 178° South 424 488 35,000  Level Indianapolis Center
Fri 12:18:13 PM 38.1764 -87.7733 178° South 429 494 35,000  Level Indianapolis Center
Fri 12:19:14 PM 38.0589 -87.7689 178° South 424 488 35,000  Level Indianapolis Center
Fri 12:20:16 PM 37.9403 -87.7578 176° South 429 494 35,000  Level Indianapolis Center
Fri 12:21:18 PM 37.8294 -87.7017 158° South 429 494 35,000  Level Indianapolis Center
Fri 12:22:20 PM 37.7094 -87.6278 154° Southeast 431 496 35,000  Level Indianapolis Center
Fri 12:23:22 PM 37.6003 -87.5611 154° Southeast 431 496 35,000  Level Indianapolis Center
Fri 12:23:44 PM 37.5622 -87.5394 156° South 429 494 35,000  Level Memphis Center
Fri 12:24:44 PM 37.4547 -87.4753 155° Southeast 429 494 35,000  Level Memphis Center
Fri 12:25:44 PM 37.3469 -87.4089 154° Southeast 429 494 35,000  Level Memphis Center
Fri 12:26:44 PM 37.2389 -87.3400 153° Southeast 429 494 35,000  Level Memphis Center
Fri 12:27:44 PM 37.1183 -87.2692 155° Southeast 429 494 35,000  Level Memphis Center
Fri 12:28:44 PM 37.0106 -87.2031 154° Southeast 429 494 35,000  Level Memphis Center
Fri 12:29:44 PM 36.8983 -87.1375 155° Southeast 429 494 35,000  Level Memphis Center
Fri 12:30:44 PM 36.7883 -87.0719 154° Southeast 429 494 35,000  Level Memphis Center
Fri 12:31:44 PM 36.6803 -87.0064 154° Southeast 429 494 35,000  Level Memphis Center
Fri 12:32:44 PM 36.5761 -86.9308 150° Southeast 434 499 35,000  Level Memphis Center
Fri 12:33:44 PM 36.4939 -86.8206 133° Southeast 434 499 35,000  Level Memphis Center
Fri 12:34:44 PM 36.4178 -86.7183 133° Southeast 440 506 35,000  Level Memphis Center
Fri 12:35:44 PM 36.3314 -86.6114 135° Southeast 446 513 35,000  Level Memphis Center
Fri 12:36:44 PM 36.2489 -86.5097 135° Southeast 434 499 35,000  Level Memphis Center
Fri 12:37:44 PM 36.1622 -86.4006 135° Southeast 416 479 35,000 -150 Level Memphis Center
Fri 12:38:44 PM 36.0544 -86.3622 164° South 388 447 34,700 -600 Descending Memphis Center
Fri 12:39:44 PM 35.9378 -86.3653 181° South 400 460 33,800 -850 Descending Memphis Center
Fri 12:40:44 PM 35.8211 -86.3683 181° South 414 476 33,000 -244 Descending Memphis Center
Fri 12:43:01 PM 35.5881 -86.2425 156° South 415 478 33,000  Level Atlanta Center
Fri 12:44:01 PM 35.4933 -86.1636 146° Southeast 420 483 33,000 -250 Level Atlanta Center
Fri 12:45:01 PM 35.3883 -86.0844 148° Southeast 433 498 32,500 -800 Descending Atlanta Center
Fri 12:46:01 PM 35.2833 -85.9978 146° Southeast 428 493 31,400 -1,100 Descending Atlanta Center
Fri 12:47:01 PM 35.1781 -85.9192 149° Southeast 435 501 30,300 -1,100 Descending Atlanta Center
Fri 12:48:01 PM 35.0894 -85.8436 145° Southeast 435 501 29,200 -1,100 Descending Atlanta Center
Fri 12:49:01 PM 34.9800 -85.7625 149° Southeast 441 507 28,100 -1,100 Descending Atlanta Center
Fri 12:50:01 PM 34.8747 -85.6794 147° Southeast 447 514 27,000 -1,100 Descending Atlanta Center
Fri 12:51:01 PM 34.7717 -85.5964 146° Southeast 452 520 25,900 -1,500 Descending Atlanta Center
Fri 12:52:01 PM 34.6683 -85.5136 147° Southeast 452 520 24,000 -1,800 Descending Atlanta Center
Fri 12:53:01 PM 34.5669 -85.4364 148° Southeast 447 514 22,300 -1,700 Descending Atlanta Center
Fri 12:54:01 PM 34.4822 -85.3694 147° Southeast 412 474 20,600 -1,800 Descending Atlanta Center
Fri 12:55:01 PM 34.3992 -85.3050 147° Southeast 374 430 18,700 -1,850 Descending Atlanta Center
Fri 12:56:01 PM 34.3206 -85.2461 148° Southeast 344 396 16,900 -1,800 Descending Atlanta Center
Fri 12:57:01 PM 34.2439 -85.1872 148° Southeast 330 380 15,100 -1,800 Descending Atlanta Center
Fri 12:58:01 PM 34.1714 -85.1258 145° Southeast 325 374 13,300 -1,050 Descending Atlanta Center
Fri 12:59:01 PM 34.1136 -85.0575 136° Southeast 302 348 13,000 -300 Descending Atlanta Center
Fri 01:00:01 PM 34.0514 -84.9992 142° Southeast 289 333 12,700 -700 Descending Atlanta Center
Fri 01:01:01 PM 33.9764 -84.9731 164° South 276 318 11,600 -1,050 Descending Atlanta Center
Fri 01:02:01 PM 33.9036 -84.9497 165° South 276 318 10,600 -1,000 Descending Atlanta Center
Fri 01:03:01 PM 33.8328 -84.9367 171° South 276 318 9,600 -800 Descending Atlanta Center
Fri 01:04:01 PM 33.7536 -84.9258 174° South 271 312 9,000 -300 Descending Atlanta Center
Fri 01:05:01 PM 33.6806 -84.9175 175° South 266 306 9,000 -545 Level Atlanta Center
Fri 01:06:24 PM 33.6333 -84.8333 124° Southeast 241 277 7,700 -797 Descending Atlanta TRACON
Fri 01:07:24 PM 33.6333 -84.7667 90° East 184 212 7,100 -1,000 Descending Atlanta TRACON
Fri 01:08:18 PM 33.6333 -84.7167 90° East 174 200 5,800 -1,368 Descending Atlanta TRACON
Fri 01:09:18 PM 33.6333 -84.6667 90° East 173 199 4,500 -1,105 Descending Atlanta TRACON
Fri 01:10:12 PM 33.6333 -84.6167 90° East 176 203 3,700 -887 Descending Atlanta TRACON
Fri 01:11:13 PM 33.6333 -84.5500 90° East 175 201 2,800 -850 Descending Atlanta TRACON
Fri 01:12:12 PM 33.6333 -84.5000 90° East 141 162 2,000 -756 Descending Atlanta TRACON
Fri 01:13:12 PM 33.6333 -84.4500 90° East 134 154 1,300 -700 Descending Atlanta TRACON
Fri 01:15:00 PM 33.6367 -84.4279 90° East  Level Estimated
Fri 01:22:00 PM 33.6367 -84.4279 90° East  Level Estimated

Login

Don't have an account? Register now (free) for customized features, flight alerts, and more!